Weather at Svetlograd Airfield [CLOSED]

Public forecast

Using degrees Celsius for public forecast. Weather courtesy of forecast.io.

Closest aviation weather report (METAR) to Svetlograd Airfield

Closest report is Stavropol Shpakovskoye Airport, 30.5 nm (56.5 km) SW. Retrieved 2020/09/18 06:30 UTC (0 seconds ago):

URMT 180630Z 30006MPS CAVOK 25/13 Q1012 R25/010070 NOSIG RMK QFE720

Closest aviation forecast (TAF) to Svetlograd Airfield

Forecast is more than 12 hours old.

Closest forecast is Stavropol Shpakovskoye Airport, 30.5 nm (56.5 km) SW. Retrieved 2019/08/03 03:15 UTC (1 year ago):

TAF URMT 030200Z 0303/0321 31005G12MPS 9999 SCT020